Terminal Aerodrome Forecast
Issued by NWS

Home | Current Version | Previous Version | Text Only | Print | Product List | Glossary On
Versions: 1 2 3 4 5 6 7 8 9 10 11 12 13 14 15 16
000
FTUS46 KEKA 260522
TAFCEC
TAF
KCEC 260522Z 2606/2706 18003KT P6SM OVC010
     FM260900 16004KT 4SM BR OVC007
     FM261400 14096KT 2SM BR OVC005
     FM261800 20008KT P6SM OVC010
     FM262100 23007KT P6SM OVC015=

USA.gov is the U.S. government's official web portal to all federal, state and local government web resources and services.